Time;durP1;ratioP1;P1;durP2;ratioP2;P2;SDS_P1;SDS_P2;PMS_P1;PMS_P2;Temp;Humidity;BMP_temperature;BMP_pressure;BME280_temperature;BME280_humidity;BME280_pressure;Samples;Min_cycle;Max_cycle;Signal;HPM_P1;HPM_P2
2024/04/24 09:01:26;;;;;;;4.43;3.13;;;9.90;99.90;;;;;;6327447;22;20008;-73
2024/04/24 09:04:03;;;;;;;3.65;2.50;;;9.90;99.90;;;;;;6327768;22;20008;-73
2024/04/24 09:06:29;;;;;;;1.90;1.60;;;9.90;99.90;;;;;;6326804;22;20532;-74
2024/04/24 09:08:56;;;;;;;2.28;1.80;;;10.00;99.90;;;;;;6324640;22;20014;-73
2024/04/24 09:11:22;;;;;;;3.40;1.70;;;10.00;99.90;;;;;;6327205;22;20015;-73
2024/04/24 09:13:48;;;;;;;3.20;1.60;;;10.00;99.90;;;;;;6326688;22;20362;-73
2024/04/24 09:16:18;;;;;;;1.57;1.17;;;10.00;99.90;;;;;;6327387;22;20052;-73
2024/04/24 09:18:59;;;;;;;1.33;1.10;;;10.10;99.90;;;;;;6326470;22;20077;-73
2024/04/24 09:21:25;;;;;;;1.33;1.07;;;10.10;99.90;;;;;;6327324;22;20000;-67
2024/04/24 09:23:51;;;;;;;1.50;1.10;;;10.10;99.90;;;;;;6327960;22;20044;-66
2024/04/24 09:26:18;;;;;;;1.30;1.03;;;10.10;99.90;;;;;;6327347;22;20004;-67
2024/04/24 09:28:45;;;;;;;1.98;1.10;;;10.10;99.90;;;;;;6328038;22;20023;-67
2024/04/24 09:31:11;;;;;;;1.25;0.95;;;10.00;99.90;;;;;;6328262;22;20036;-67
2024/04/24 09:33:37;;;;;;;1.50;1.10;;;10.00;99.90;;;;;;6327905;22;20004;-66
2024/04/24 09:36:03;;;;;;;4.43;1.40;;;10.00;99.90;;;;;;6327949;22;20000;-67
2024/04/24 09:42:29;;;;;;;2.30;1.10;;;10.10;99.90;;;;;;6090987;23;20014;-67
2024/04/24 09:49:22;;;;;;;1.07;0.80;;;10.10;99.90;;;;;;6089292;23;20014;-66
2024/04/24 10:02:40;;;;;;;0.70;0.60;;;10.40;99.90;;;;;;5870395;24;20014;-67
2024/04/24 10:05:20;;;;;;;1.02;0.55;;;10.50;99.90;;;;;;5894219;23;20037;-67
2024/04/24 10:08:07;;;;;;;0.93;0.60;;;10.50;99.90;;;;;;6263552;22;19999;-67
2024/04/24 10:10:35;;;;;;;1.13;0.50;;;10.60;99.90;;;;;;6327090;22;20084;-67
2024/04/24 10:13:03;;;;;;;1.20;0.80;;;10.60;99.90;;;;;;6326309;22;20004;-67
2024/04/24 10:15:43;;;;;;;1.27;0.60;;;10.70;99.90;;;;;;6325727;22;20371;-67
2024/04/24 10:18:09;;;;;;;0.93;0.60;;;10.70;99.90;;;;;;6326563;22;20092;-66
2024/04/24 10:20:43;;;;;;;2.42;0.50;;;10.80;99.90;;;;;;6326395;22;20014;-67
2024/04/24 10:23:09;;;;;;;1.10;0.60;;;10.90;99.90;;;;;;6325353;22;20000;-67
2024/04/24 10:25:35;;;;;;;1.00;0.60;;;10.90;99.90;;;;;;6325497;22;20010;-67
2024/04/24 10:28:03;;;;;;;1.00;0.80;;;11.00;99.90;;;;;;6324827;22;20012;-67
2024/04/24 10:30:30;;;;;;;0.52;0.50;;;11.10;99.90;;;;;;6325192;22;20481;-67
2024/04/24 10:32:56;;;;;;;1.02;0.75;;;11.10;99.90;;;;;;6325254;22;20603;-66
2024/04/24 10:35:25;;;;;;;0.88;0.60;;;11.10;99.90;;;;;;6325483;22;20006;-68
2024/04/24 10:37:58;;;;;;;0.73;0.50;;;11.20;99.90;;;;;;6325505;22;20024;-67
2024/04/24 10:40:29;;;;;;;0.60;0.50;;;11.20;99.90;;;;;;6325427;22;20463;-68
2024/04/24 10:42:59;;;;;;;0.50;0.40;;;11.20;99.90;;;;;;6324486;22;20007;-70
2024/04/24 10:45:27;;;;;;;1.17;0.47;;;11.30;99.90;;;;;;6282434;22;20409;-67
2024/04/24 10:47:55;;;;;;;0.60;0.60;;;11.30;99.90;;;;;;6324626;22;20034;-73
2024/04/24 10:50:25;;;;;;;0.50;0.40;;;11.30;99.90;;;;;;6325454;22;20433;-67
2024/04/24 10:52:56;;;;;;;1.35;0.60;;;11.30;99.90;;;;;;6324979;22;20011;-67
2024/04/24 10:55:22;;;;;;;0.65;0.47;;;11.30;99.90;;;;;;6325800;22;20007;-67
2024/04/24 10:57:50;;;;;;;0.43;0.40;;;11.40;99.90;;;;;;6325370;22;20004;-67
2024/04/24 11:00:17;;;;;;;0.73;0.43;;;11.30;99.90;;;;;;6324793;22;20000;-67
2024/04/24 11:02:45;;;;;;;0.50;0.50;;;11.40;99.90;;;;;;6324166;22;20000;-74
2024/04/24 11:05:15;;;;;;;0.50;0.43;;;11.40;99.90;;;;;;6324179;22;20007;-74
2024/04/24 11:07:41;;;;;;;0.60;0.40;;;11.50;99.90;;;;;;6324150;22;20011;-72
2024/04/24 11:10:08;;;;;;;0.43;0.40;;;11.50;99.90;;;;;;6323935;22;20349;-74
2024/04/24 11:12:38;;;;;;;0.65;0.50;;;11.50;99.90;;;;;;6321496;22;19996;-73
2024/04/24 11:15:18;;;;;;;0.77;0.50;;;11.60;99.90;;;;;;6321413;22;20022;-74
2024/04/24 11:22:15;;;;;;;2.38;0.40;;;11.70;99.90;;;;;;6326161;22;20011;-74
2024/04/24 11:34:46;;;;;;;0.50;0.30;;;11.90;98.50;;;;;;6136879;23;20061;-70
2024/04/24 11:37:39;;;;;;;0.30;0.30;;;11.90;98.20;;;;;;6136773;23;20007;-67
2024/04/24 11:40:06;;;;;;;;;;;11.90;98.40;;;;;;6137112;23;20007;-67
2024/04/24 11:42:32;;;;;;;4.25;0.43;;;11.90;97.60;;;;;;6266086;22;19935;-67
2024/04/24 11:44:58;;;;;;;0.70;0.60;;;11.90;97.10;;;;;;6328415;22;20341;-67
2024/04/24 11:47:24;;;;;;;0.80;0.40;;;12.00;96.90;;;;;;6328388;22;20344;-73
2024/04/24 11:49:51;;;;;;;0.75;0.57;;;12.10;96.80;;;;;;6328462;22;20014;-74
2024/04/24 11:52:17;;;;;;;0.73;0.40;;;12.30;97.40;;;;;;6327859;22;20321;-75
2024/04/24 11:54:50;;;;;;;0.70;0.45;;;12.40;97.10;;;;;;6327567;22;20007;-73
2024/04/24 11:57:19;;;;;;;0.32;0.32;;;12.50;96.70;;;;;;6327724;22;20076;-73
2024/04/24 11:59:48;;;;;;;1.98;0.28;;;12.70;96.20;;;;;;6328141;22;20003;-73
2024/04/24 12:02:18;;;;;;;2.50;0.50;;;12.80;95.30;;;;;;6285615;22;20308;-72
2024/04/24 12:04:47;;;;;;;0.82;0.45;;;13.00;95.60;;;;;;6328410;22;20314;-73
2024/04/24 12:07:14;;;;;;;0.30;0.20;;;13.20;95.00;;;;;;6324564;22;20413;-72
2024/04/24 12:09:40;;;;;;;0.77;0.50;;;13.40;95.00;;;;;;6324257;22;20011;-73
2024/04/24 12:12:07;;;;;;;0.30;0.30;;;13.60;94.00;;;;;;6325021;22;20825;-73
2024/04/24 12:14:37;;;;;;;2.03;0.30;;;13.70;92.20;;;;;;6327453;22;20429;-73
2024/04/24 12:17:03;;;;;;;1.00;0.60;;;13.90;91.80;;;;;;6327614;22;20417;-73
2024/04/24 12:19:29;;;;;;;1.08;0.40;;;13.90;91.00;;;;;;6328306;22;20446;-72
2024/04/24 12:21:56;;;;;;;0.38;0.30;;;14.00;91.00;;;;;;6327530;22;20014;-73
2024/04/24 12:24:25;;;;;;;0.77;0.40;;;14.20;90.80;;;;;;6327274;22;20003;-73
2024/04/24 12:26:52;;;;;;;0.30;0.25;;;14.30;89.00;;;;;;6327286;22;20439;-73
2024/04/24 12:29:18;;;;;;;0.20;0.20;;;14.30;87.20;;;;;;6327302;22;20014;-73
2024/04/24 12:31:44;;;;;;;0.25;0.20;;;14.30;86.40;;;;;;6327511;22;20004;-73
2024/04/24 12:34:10;;;;;;;0.40;0.30;;;14.30;84.40;;;;;;6327167;22;20014;-73
2024/04/24 12:36:36;;;;;;;0.32;0.30;;;14.40;85.30;;;;;;6285353;22;20004;-72
2024/04/24 12:39:08;;;;;;;0.40;0.40;;;14.40;86.80;;;;;;6328216;22;20000;-73
2024/04/24 12:41:37;;;;;;;0.47;0.30;;;14.50;86.30;;;;;;6327568;22;20008;-73
2024/04/24 12:44:06;;;;;;;0.60;0.20;;;14.50;82.60;;;;;;6327045;22;20014;-70
2024/04/24 12:46:32;;;;;;;0.70;0.40;;;14.40;80.00;;;;;;6327888;22;20000;-72
2024/04/24 12:49:01;;;;;;;0.38;0.30;;;14.30;78.70;;;;;;6324610;22;20004;-74
2024/04/24 12:51:27;;;;;;;0.32;0.20;;;14.30;80.20;;;;;;6324291;22;20015;-71
2024/04/24 12:53:53;;;;;;;0.75;0.22;;;14.10;80.00;;;;;;6326603;22;20022;-72
2024/04/24 12:56:22;;;;;;;0.30;0.30;;;14.10;80.40;;;;;;6327996;22;20004;-72
2024/04/24 13:16:42;;;;;;;5.07;0.55;;;13.30;87.60;;;;;;5870700;24;20148;-73
2024/04/24 13:19:08;;;;;;;6.10;0.60;;;13.10;91.00;;;;;;5870733;24;20385;-73
2024/04/24 13:21:34;;;;;;;3.30;0.88;;;12.90;91.80;;;;;;6159692;22;20076;-73
2024/04/24 13:23:59;;;;;;;1.40;0.60;;;12.80;92.50;;;;;;6325708;22;20024;-72
2024/04/24 13:26:25;;;;;;;4.45;0.52;;;12.70;93.20;;;;;;6284525;22;20000;-74
2024/04/24 13:28:51;;;;;;;4.15;0.60;;;12.70;93.80;;;;;;6327572;22;20000;-73
2024/04/24 13:31:17;;;;;;;1.95;0.47;;;12.60;94.60;;;;;;6327264;22;20007;-72
2024/04/24 13:33:43;;;;;;;1.55;0.57;;;12.60;94.90;;;;;;6327412;22;20753;-72
2024/04/24 13:36:09;;;;;;;2.80;0.70;;;12.60;95.40;;;;;;6327278;22;20109;-72
2024/04/24 13:38:34;;;;;;;1.23;0.45;;;12.70;95.80;;;;;;6324404;22;20007;-68
2024/04/24 13:41:03;;;;;;;1.67;0.50;;;12.80;96.50;;;;;;6325676;22;20006;-69
2024/04/24 13:43:29;;;;;;;1.40;0.55;;;13.00;96.20;;;;;;6326623;22;20089;-68
2024/04/24 13:45:55;;;;;;;3.30;0.57;;;13.10;95.10;;;;;;6327096;22;20007;-69
2024/04/24 13:48:21;;;;;;;1.52;0.50;;;13.30;94.10;;;;;;6326925;22;19996;-73
2024/04/24 13:50:47;;;;;;;1.73;0.65;;;13.40;93.70;;;;;;6327132;22;20047;-70
2024/04/24 13:53:13;;;;;;;0.40;0.32;;;13.40;91.60;;;;;;6323474;22;20010;-70
2024/04/24 13:55:39;;;;;;;1.65;0.30;;;13.50;91.20;;;;;;6323104;22;20404;-67
2024/04/24 13:58:05;;;;;;;3.58;0.75;;;13.60;90.70;;;;;;6326974;22;20007;-66
2024/04/24 14:00:30;;;;;;;2.25;0.40;;;13.70;89.90;;;;;;6326908;22;20075;-68
2024/04/24 14:02:57;;;;;;;0.73;0.40;;;13.70;89.30;;;;;;6283854;22;20000;-67
2024/04/24 14:05:23;;;;;;;3.10;0.40;;;13.70;88.10;;;;;;6326645;22;20007;-67
2024/04/24 14:07:49;;;;;;;0.90;0.50;;;13.70;86.80;;;;;;6324098;22;20000;-68
2024/04/24 14:10:15;;;;;;;1.58;0.50;;;13.60;86.50;;;;;;6326490;22;20076;-67
2024/04/24 14:12:41;;;;;;;1.00;0.32;;;13.60;86.20;;;;;;6327062;22;20008;-73
2024/04/24 14:15:08;;;;;;;0.60;0.30;;;13.70;85.70;;;;;;6327993;22;20015;-73
2024/04/24 14:17:37;;;;;;;0.88;0.43;;;13.70;85.00;;;;;;6327215;22;20274;-72
2024/04/24 14:20:04;;;;;;;2.22;0.30;;;13.60;85.60;;;;;;6327809;22;20075;-72
2024/04/24 14:22:30;;;;;;;0.50;0.32;;;13.50;85.80;;;;;;6327569;22;20011;-73
2024/04/24 14:24:56;;;;;;;1.98;0.52;;;13.50;86.50;;;;;;6326968;22;20007;-73
2024/04/24 14:27:30;;;;;;;0.45;0.30;;;13.50;86.90;;;;;;6326850;22;20071;-72
2024/04/24 14:29:59;;;;;;;1.52;0.30;;;13.50;87.50;;;;;;6326085;22;20049;-73
2024/04/24 14:32:25;;;;;;;2.15;0.30;;;13.50;87.90;;;;;;6326398;22;19999;-71
2024/04/24 14:34:57;;;;;;;0.68;0.30;;;13.40;88.30;;;;;;6326715;22;20106;-72
2024/04/24 14:40:34;;;;;;;1.38;0.30;;;13.30;87.20;;;;;;6226528;23;20078;-72
2024/04/24 14:43:30;;;;;;;2.63;0.50;;;13.20;87.80;;;;;;6226873;23;20001;-73
2024/04/24 14:45:56;;;;;;;0.60;0.30;;;13.20;87.20;;;;;;6311266;22;19996;-73
2024/04/24 14:48:26;;;;;;;1.05;0.35;;;13.20;87.40;;;;;;6324922;22;20542;-69
2024/04/24 14:50:52;;;;;;;0.68;0.43;;;13.20;86.50;;;;;;6326470;22;20000;-71
2024/04/24 14:53:18;;;;;;;1.75;0.50;;;13.20;87.00;;;;;;6326818;22;20018;-67
2024/04/24 14:55:43;;;;;;;1.48;0.60;;;13.20;85.00;;;;;;6326173;22;20028;-71
2024/04/24 14:58:11;;;;;;;1.20;0.47;;;13.20;86.00;;;;;;6320023;22;20036;-72
2024/04/24 15:00:37;;;;;;;1.55;0.50;;;13.30;84.80;;;;;;6320205;22;20043;-72
2024/04/24 15:03:03;;;;;;;0.68;0.40;;;13.30;85.00;;;;;;6321715;22;20004;-72
2024/04/24 15:05:28;;;;;;;2.50;0.45;;;13.30;84.80;;;;;;6325054;22;20079;-72
2024/04/24 15:07:54;;;;;;;0.60;0.43;;;13.30;83.70;;;;;;6326480;22;20016;-72
2024/04/24 15:10:21;;;;;;;1.70;0.57;;;13.20;84.10;;;;;;6327786;22;20020;-73
2024/04/24 15:12:46;;;;;;;3.70;0.45;;;13.20;84.80;;;;;;6285859;22;19996;-72
2024/04/24 15:15:12;;;;;;;0.73;0.52;;;13.10;83.70;;;;;;6328111;22;20012;-72
2024/04/24 15:17:38;;;;;;;0.50;0.50;;;13.10;84.60;;;;;;6327470;22;20000;-70
2024/04/24 15:20:04;;;;;;;4.28;0.65;;;13.00;85.00;;;;;;6323897;22;20000;-67
2024/04/24 15:22:31;;;;;;;0.85;0.50;;;13.00;84.40;;;;;;6282425;22;20413;-67
2024/04/24 15:24:56;;;;;;;3.88;0.55;;;13.00;84.50;;;;;;6328784;22;20011;-67
2024/04/24 15:27:22;;;;;;;1.10;0.50;;;13.00;84.70;;;;;;6326774;22;19996;-67
2024/04/24 15:29:48;;;;;;;1.48;0.40;;;13.00;84.80;;;;;;6328669;22;20015;-72
2024/04/24 15:32:13;;;;;;;2.30;0.50;;;12.90;85.70;;;;;;6325929;22;20083;-73
2024/04/24 15:34:39;;;;;;;1.00;0.70;;;12.90;85.30;;;;;;6325988;22;20018;-68
2024/04/24 15:37:07;;;;;;;0.40;0.40;;;12.90;85.10;;;;;;6329280;22;20018;-67
2024/04/24 15:39:33;;;;;;;1.88;0.70;;;12.90;84.10;;;;;;6327101;22;20008;-67
2024/04/24 15:41:59;;;;;;;0.43;0.40;;;12.80;83.80;;;;;;6327994;22;20015;-68
2024/04/24 15:44:24;;;;;;;1.52;0.65;;;12.80;84.10;;;;;;6327275;22;20003;-68
2024/04/24 15:46:50;;;;;;;0.88;0.40;;;12.70;84.60;;;;;;6328542;22;19999;-68
2024/04/24 15:49:17;;;;;;;0.55;0.40;;;12.70;85.50;;;;;;6327138;22;19996;-70
2024/04/24 15:51:44;;;;;;;1.08;0.35;;;12.70;85.20;;;;;;6329398;22;20762;-68
2024/04/24 15:54:10;;;;;;;0.77;0.40;;;12.70;85.10;;;;;;6329221;22;19992;-69
2024/04/24 15:56:37;;;;;;;1.33;0.40;;;12.60;85.00;;;;;;6329410;22;20298;-71
2024/04/24 15:59:03;;;;;;;0.60;0.50;;;12.60;84.80;;;;;;6329351;22;20354;-67
2024/04/24 16:25:49;;;;;;;0.68;0.40;;;12.30;85.40;;;;;;5914790;23;20123;-69
2024/04/24 16:28:15;;;;;;;1.48;0.50;;;12.30;85.80;;;;;;6045472;23;20434;-69
2024/04/24 16:30:41;;;;;;;2.95;0.50;;;12.20;86.60;;;;;;6172006;23;19998;-72
2024/04/24 16:33:07;;;;;;;1.42;0.65;;;12.20;87.10;;;;;;6304112;22;20007;-73
2024/04/24 16:35:33;;;;;;;4.38;0.70;;;12.20;88.20;;;;;;6328363;22;20006;-73
2024/04/24 16:37:59;;;;;;;1.15;0.50;;;12.20;89.20;;;;;;6285936;22;20381;-72
2024/04/24 16:40:25;;;;;;;0.55;0.40;;;12.20;90.00;;;;;;6328002;22;19995;-72
2024/04/24 16:42:50;;;;;;;1.45;0.60;;;12.10;90.10;;;;;;6328282;22;20075;-72
2024/04/24 16:45:16;;;;;;;1.00;0.57;;;12.10;90.60;;;;;;6327855;22;20011;-73
2024/04/24 16:47:42;;;;;;;0.30;0.30;;;12.00;91.10;;;;;;6286069;22;19996;-73
2024/04/24 16:50:08;;;;;;;1.45;0.60;;;12.00;91.20;;;;;;6324105;22;20051;-71
2024/04/24 16:52:35;;;;;;;1.10;0.55;;;11.90;91.50;;;;;;6323830;22;19995;-72
2024/04/24 16:55:02;;;;;;;1.00;0.70;;;11.90;91.90;;;;;;6324261;22;20079;-73
2024/04/24 16:57:28;;;;;;;2.78;0.73;;;11.90;92.00;;;;;;6327596;22;20437;-72
2024/04/24 16:59:55;;;;;;;1.50;0.60;;;11.90;92.20;;;;;;6328083;22;19996;-72
2024/04/24 17:02:21;;;;;;;1.52;0.75;;;11.90;92.60;;;;;;6327846;22;20007;-72
2024/04/24 17:04:47;;;;;;;4.20;0.80;;;11.90;92.90;;;;;;6327987;22;20426;-70
2024/04/24 17:07:15;;;;;;;7.32;1.00;;;11.90;92.50;;;;;;6327334;22;20014;-66
2024/04/24 17:09:41;;;;;;;1.27;0.80;;;11.90;92.30;;;;;;6326954;22;19996;-66
2024/04/24 17:12:07;;;;;;;2.00;1.30;;;11.90;92.20;;;;;;6326313;22;20004;-71
2024/04/24 17:14:32;;;;;;;1.65;0.88;;;11.90;92.20;;;;;;6327279;22;19996;-70
2024/04/24 17:16:58;;;;;;;1.50;0.80;;;11.90;92.10;;;;;;6327007;22;20050;-73
2024/04/24 17:19:24;;;;;;;1.63;1.02;;;11.90;92.00;;;;;;6327322;22;20011;-73
2024/04/24 17:21:50;;;;;;;3.33;0.90;;;11.90;92.10;;;;;;6327829;22;20000;-68
2024/04/24 17:24:18;;;;;;;5.75;1.08;;;11.80;92.00;;;;;;6327421;22;20027;-68
2024/04/24 17:26:48;;;;;;;2.10;1.02;;;11.80;92.00;;;;;;6327056;22;20032;-70
2024/04/24 17:29:14;;;;;;;1.25;0.82;;;11.80;92.00;;;;;;6328091;22;20000;-72
2024/04/24 17:31:40;;;;;;;2.13;1.05;;;11.80;91.60;;;;;;6328223;22;20000;-72
2024/04/24 17:34:07;;;;;;;2.53;1.33;;;11.80;91.90;;;;;;6326027;22;20321;-74
2024/04/24 17:36:33;;;;;;;2.85;1.02;;;11.70;92.00;;;;;;6324029;22;20004;-74
2024/04/24 17:39:03;;;;;;;6.10;1.10;;;11.70;92.30;;;;;;6325700;22;20022;-73
2024/04/24 17:41:52;;;;;;;1.83;1.05;;;11.70;92.40;;;;;;6327534;22;20023;-74
2024/04/24 17:44:52;;;;;;;4.20;1.08;;;11.60;92.60;;;;;;6244555;22;20006;-73
2024/04/24 17:47:58;;;;;;;3.42;0.85;;;11.60;92.90;;;;;;6227523;23;20025;-73
2024/04/24 17:57:34;;;;;;;3.30;0.80;;;11.50;93.30;;;;;;5830887;24;20018;-74
2024/04/24 18:03:47;;;;;;;3.28;1.15;;;11.40;93.60;;;;;;5831028;24;20052;-73
2024/04/24 18:06:13;;;;;;;4.57;1.13;;;11.40;93.80;;;;;;5828370;24;20087;-73
2024/04/24 18:08:40;;;;;;;2.53;1.35;;;11.40;93.90;;;;;;6005793;23;20035;-67
2024/04/24 18:11:06;;;;;;;2.40;0.98;;;11.40;93.90;;;;;;6149645;23;20380;-67
2024/04/24 18:13:31;;;;;;;3.25;1.10;;;11.40;93.90;;;;;;6227444;23;20009;-67
2024/04/24 18:15:57;;;;;;;2.72;1.10;;;11.40;94.00;;;;;;6227676;23;20001;-67
2024/04/24 18:18:23;;;;;;;2.05;1.10;;;11.40;94.00;;;;;;6227414;23;20072;-67
2024/04/24 18:20:49;;;;;;;2.30;1.55;;;11.30;94.10;;;;;;6227639;23;20003;-67
2024/04/24 18:23:14;;;;;;;3.03;1.63;;;11.30;94.10;;;;;;6227652;23;20012;-66
2024/04/24 18:25:41;;;;;;;3.72;1.38;;;11.30;94.20;;;;;;6311832;22;20011;-66
2024/04/24 18:28:07;;;;;;;2.20;1.20;;;11.30;94.40;;;;;;6326776;22;20003;-67
2024/04/24 18:30:33;;;;;;;3.78;1.25;;;11.30;94.40;;;;;;6326378;22;20008;-67
2024/04/24 18:33:02;;;;;;;1.95;1.00;;;11.30;94.60;;;;;;6326275;22;20490;-67
2024/04/24 18:35:28;;;;;;;3.90;0.98;;;11.30;94.60;;;;;;6326467;22;20375;-67
2024/04/24 18:37:53;;;;;;;4.47;1.10;;;11.30;94.50;;;;;;6325690;22;20003;-66
2024/04/24 18:40:20;;;;;;;1.50;1.00;;;11.30;94.30;;;;;;6281191;22;20007;-67
2024/04/24 18:42:45;;;;;;;1.42;0.75;;;11.30;94.00;;;;;;6323187;22;20442;-67
2024/04/24 18:45:12;;;;;;;2.80;0.95;;;11.30;94.10;;;;;;6324758;22;19995;-67
2024/04/24 18:47:38;;;;;;;3.05;1.00;;;11.30;94.20;;;;;;6326248;22;20032;-66
2024/04/24 18:50:10;;;;;;;1.42;0.93;;;11.30;94.10;;;;;;6327105;22;20068;-66
2024/04/24 18:52:37;;;;;;;1.15;0.93;;;11.30;94.20;;;;;;6326910;22;20461;-66
2024/04/24 18:55:06;;;;;;;1.85;1.30;;;11.20;94.10;;;;;;6326096;22;20433;-67
2024/04/24 18:57:32;;;;;;;3.30;0.90;;;11.20;94.10;;;;;;6326699;22;20004;-66
2024/04/24 18:59:58;;;;;;;1.83;0.90;;;11.20;94.20;;;;;;6327009;22;20008;-66
2024/04/24 19:02:24;;;;;;;1.30;1.00;;;11.10;94.20;;;;;;6326607;22;20008;-66
2024/04/24 19:04:50;;;;;;;2.00;1.10;;;11.10;94.00;;;;;;6327030;22;20052;-66
2024/04/24 19:07:15;;;;;;;1.98;1.10;;;11.10;94.40;;;;;;6327363;22;20032;-66
2024/04/24 19:09:41;;;;;;;4.07;1.30;;;11.10;94.30;;;;;;6326066;22;20000;-72
2024/04/24 19:12:07;;;;;;;1.63;1.00;;;11.00;94.50;;;;;;6326653;22;20007;-67
2024/04/24 19:14:33;;;;;;;3.15;1.50;;;11.00;94.70;;;;;;6327303;22;20000;-66
2024/04/24 19:37:51;;;;;;;2.28;1.27;;;11.00;95.90;;;;;;5873167;24;20015;-65
2024/04/24 19:40:30;;;;;;;1.77;1.30;;;11.00;95.90;;;;;;5911681;24;20021;-66
2024/04/24 19:42:59;;;;;;;4.00;1.38;;;11.00;96.00;;;;;;5879311;24;20319;-74
2024/04/24 19:45:27;;;;;;;4.32;1.25;;;11.00;96.10;;;;;;6094815;23;20377;-66
2024/04/24 19:47:53;;;;;;;1.75;1.20;;;11.00;96.10;;;;;;6258971;22;20007;-67
2024/04/24 19:50:19;;;;;;;2.15;1.30;;;11.00;96.20;;;;;;6327096;22;20004;-69
2024/04/24 19:52:45;;;;;;;1.52;1.17;;;11.00;96.20;;;;;;6328106;22;20388;-68
2024/04/24 19:55:11;;;;;;;2.17;1.17;;;11.00;96.30;;;;;;6328109;22;20436;-67
2024/04/24 19:57:37;;;;;;;2.70;1.50;;;11.00;96.40;;;;;;6328288;22;20007;-66
2024/04/24 20:00:04;;;;;;;1.67;1.00;;;11.00;96.40;;;;;;6285400;22;20008;-65
2024/04/24 20:02:30;;;;;;;3.30;1.20;;;11.00;96.40;;;;;;6327474;22;19996;-66
2024/04/24 20:04:56;;;;;;;3.03;1.60;;;11.00;96.60;;;;;;6327999;22;19996;-66
2024/04/24 20:07:22;;;;;;;6.38;1.90;;;11.00;96.70;;;;;;6327281;22;20007;-66
2024/04/24 20:09:48;;;;;;;3.65;1.90;;;11.00;96.80;;;;;;6327589;22;20071;-66
2024/04/24 20:12:14;;;;;;;3.17;1.90;;;11.00;96.90;;;;;;6327925;22;20317;-73
2024/04/24 20:14:40;;;;;;;2.33;1.58;;;11.00;97.10;;;;;;6327879;22;20011;-66
2024/04/24 20:17:07;;;;;;;2.67;2.00;;;11.00;97.30;;;;;;6327252;22;19999;-69
2024/04/24 20:19:33;;;;;;;3.13;1.67;;;11.00;97.40;;;;;;6327718;22;20002;-66
2024/04/24 20:21:59;;;;;;;3.45;1.85;;;11.00;97.90;;;;;;6327500;22;19999;-68
2024/04/24 20:24:25;;;;;;;3.33;1.95;;;11.00;98.10;;;;;;6326857;22;20003;-67
2024/04/24 20:26:50;;;;;;;3.60;1.63;;;11.00;98.20;;;;;;6327592;22;20080;-67
2024/04/24 20:29:20;;;;;;;3.13;1.70;;;11.00;98.40;;;;;;6327738;22;19995;-67
2024/04/24 20:31:46;;;;;;;4.25;1.65;;;11.00;98.80;;;;;;6286411;22;19999;-67
2024/04/24 20:34:13;;;;;;;3.13;2.13;;;11.00;99.30;;;;;;6327662;22;20032;-67
2024/04/24 20:36:39;;;;;;;3.15;1.75;;;11.00;99.90;;;;;;6327416;22;20011;-67
2024/04/24 20:39:11;;;;;;;3.03;1.60;;;11.00;99.90;;;;;;6326940;22;20103;-68
2024/04/24 20:41:42;;;;;;;2.10;1.60;;;11.00;99.90;;;;;;6328787;22;20390;-67
2024/04/24 20:44:08;;;;;;;3.13;2.08;;;11.00;99.90;;;;;;6328723;22;20294;-72
2024/04/24 20:46:39;;;;;;;2.45;1.55;;;11.00;99.90;;;;;;6328666;22;20004;-69
2024/04/24 20:49:05;;;;;;;2.05;1.45;;;11.00;99.90;;;;;;6327009;22;20027;-68
2024/04/24 20:51:31;;;;;;;4.30;1.83;;;11.00;99.90;;;;;;6327928;22;20413;-67
2024/04/24 21:11:44;;;;;;;1.20;0.80;;;10.80;99.90;;;;;;6327850;22;20006;-72
2024/04/24 21:17:59;;;;;;;1.13;1.00;;;10.70;99.90;;;;;;6055342;23;20055;-67
2024/04/24 21:20:25;;;;;;;2.03;1.10;;;10.70;99.90;;;;;;6322671;22;19991;-71
2024/04/24 21:22:52;;;;;;;2.28;1.33;;;10.70;99.90;;;;;;6281292;22;20086;-67
2024/04/24 21:25:19;;;;;;;1.40;0.88;;;10.70;99.90;;;;;;6281843;22;20006;-66
2024/04/24 21:27:44;;;;;;;1.63;1.17;;;10.70;99.90;;;;;;6327860;22;20279;-67
2024/04/24 21:30:10;;;;;;;3.38;1.15;;;10.70;99.90;;;;;;6326417;22;20049;-66
2024/04/24 21:32:36;;;;;;;1.73;1.20;;;10.60;99.90;;;;;;6326764;22;20305;-67
2024/04/24 21:35:03;;;;;;;1.65;1.35;;;10.60;99.90;;;;;;6327595;22;20000;-66
2024/04/24 21:37:31;;;;;;;1.65;1.00;;;10.60;99.90;;;;;;6327769;22;19996;-67
2024/04/24 21:39:57;;;;;;;1.55;1.02;;;10.60;99.90;;;;;;6327466;22;20019;-67
2024/04/24 21:42:23;;;;;;;1.23;1.08;;;10.60;99.90;;;;;;6327313;22;20003;-66
2024/04/24 21:44:49;;;;;;;1.63;1.17;;;10.60;99.90;;;;;;6284674;22;20033;-67
2024/04/24 21:47:14;;;;;;;2.00;1.30;;;10.60;99.90;;;;;;6327017;22;19999;-67
2024/04/24 21:49:40;;;;;;;2.38;1.30;;;10.60;99.90;;;;;;6327428;22;20000;-67
2024/04/24 21:52:06;;;;;;;2.88;1.23;;;10.50;99.90;;;;;;6327326;22;20000;-66
2024/04/24 21:54:32;;;;;;;2.58;1.63;;;10.50;99.90;;;;;;6327699;22;20015;-66
2024/04/24 21:56:58;;;;;;;3.35;1.92;;;10.50;99.90;;;;;;6327185;22;20035;-66
2024/04/24 21:59:26;;;;;;;3.20;2.10;;;10.50;99.90;;;;;;6326840;22;20106;-67
2024/04/24 22:01:53;;;;;;;3.88;2.30;;;10.50;99.90;;;;;;6326855;22;20012;-67
2024/04/24 22:04:19;;;;;;;2.50;1.88;;;10.50;99.90;;;;;;6327223;22;20334;-66
2024/04/24 22:06:45;;;;;;;4.75;1.83;;;10.50;99.90;;;;;;6327059;22;20003;-72
2024/04/24 22:09:10;;;;;;;4.97;2.08;;;10.50;99.90;;;;;;6326875;22;20010;-71
2024/04/24 22:11:37;;;;;;;3.83;2.10;;;10.50;99.90;;;;;;6327042;22;20004;-67
2024/04/24 22:14:03;;;;;;;6.20;1.77;;;10.50;99.90;;;;;;6326864;22;20000;-72
2024/04/24 22:16:29;;;;;;;4.03;1.85;;;10.40;99.90;;;;;;6326931;22;20011;-67
2024/04/24 22:18:55;;;;;;;3.65;1.42;;;10.50;99.90;;;;;;6326573;22;20390;-67
2024/04/24 22:21:22;;;;;;;3.25;1.70;;;10.50;99.90;;;;;;6327226;22;20000;-66
2024/04/24 22:23:48;;;;;;;3.67;1.80;;;10.50;99.90;;;;;;6327012;22;20004;-66
2024/04/24 22:26:14;;;;;;;1.73;1.38;;;10.50;99.90;;;;;;6327099;22;20019;-67
2024/04/24 22:28:41;;;;;;;2.00;1.40;;;10.50;99.90;;;;;;6327136;22;20409;-67
2024/04/24 22:31:58;;;;;;;1.80;1.20;;;10.40;99.90;;;;;;6326768;22;20048;-67
2024/04/24 22:35:04;;;;;;;2.25;1.33;;;10.40;99.90;;;;;;6098103;23;20018;-72
2024/04/24 22:53:43;;;;;;;2.08;1.02;;;10.40;99.90;;;;;;5871380;24;20007;-67
2024/04/24 22:56:12;;;;;;;1.48;1.05;;;10.40;99.90;;;;;;5910168;24;20015;-66
2024/04/24 22:58:38;;;;;;;2.13;1.02;;;10.40;99.90;;;;;;6118076;22;20308;-66
2024/04/24 23:01:04;;;;;;;1.55;1.20;;;10.30;99.90;;;;;;6326757;22;20007;-66
2024/04/24 23:03:30;;;;;;;3.92;0.90;;;10.30;99.90;;;;;;6327203;22;20069;-66
2024/04/24 23:05:56;;;;;;;1.88;1.10;;;10.30;99.90;;;;;;6327220;22;19996;-68
2024/04/24 23:08:23;;;;;;;1.67;1.02;;;10.30;99.90;;;;;;6326384;22;19999;-66
2024/04/24 23:10:50;;;;;;;1.17;1.00;;;10.30;99.90;;;;;;6326847;22;19996;-67
2024/04/24 23:13:16;;;;;;;3.08;1.10;;;10.30;99.90;;;;;;6326844;22;20000;-67
2024/04/24 23:15:41;;;;;;;1.45;0.82;;;10.30;99.90;;;;;;6326951;22;20024;-67
2024/04/24 23:18:07;;;;;;;1.85;1.10;;;10.30;99.90;;;;;;6326610;22;19996;-67
2024/04/24 23:20:33;;;;;;;2.28;0.82;;;10.30;99.90;;;;;;6326200;22;19996;-66
2024/04/24 23:22:59;;;;;;;0.70;0.57;;;10.30;99.90;;;;;;6326519;22;19999;-67
2024/04/24 23:25:25;;;;;;;0.73;0.60;;;10.30;99.90;;;;;;6327579;22;19996;-72
2024/04/24 23:27:51;;;;;;;0.30;0.30;;;10.20;99.90;;;;;;6328762;22;20000;-66
2024/04/24 23:30:17;;;;;;;0.25;0.25;;;10.20;99.90;;;;;;6328757;22;20416;-66
2024/04/24 23:32:43;;;;;;;0.40;0.30;;;10.20;99.90;;;;;;6328951;22;19996;-66
2024/04/24 23:35:08;;;;;;;0.20;0.20;;;10.10;99.90;;;;;;6328810;22;20542;-67
2024/04/24 23:37:34;;;;;;;0.13;0.13;;;10.10;99.90;;;;;;6328686;22;20000;-67
2024/04/24 23:40:00;;;;;;;0.10;0.10;;;10.10;99.90;;;;;;6328927;22;19999;-67
2024/04/24 23:42:26;;;;;;;2.35;0.40;;;10.00;99.90;;;;;;6328986;22;20004;-66
2024/04/24 23:44:52;;;;;;;0.50;0.27;;;9.90;99.90;;;;;;6328268;22;20000;-66
2024/04/24 23:47:18;;;;;;;1.55;0.30;;;9.90;99.90;;;;;;6328566;22;19999;-66
2024/04/24 23:49:43;;;;;;;0.40;0.40;;;9.80;99.90;;;;;;6328706;22;19996;-66
2024/04/24 23:52:09;;;;;;;0.60;0.30;;;9.80;99.90;;;;;;6328717;22;20375;-66
2024/04/24 23:54:35;;;;;;;0.40;0.40;;;9.80;99.90;;;;;;6328748;22;20053;-67
2024/04/24 23:57:01;;;;;;;0.40;0.40;;;9.80;99.90;;;;;;6329534;22;20007;-67
2024/04/24 23:59:27;;;;;;;0.40;0.30;;;9.70;99.90;;;;;;6329486;22;20024;-67
